Time;durP1;ratioP1;P1;durP2;ratioP2;P2;SDS_P1;SDS_P2;PMS_P1;PMS_P2;Temp;Humidity;BMP_temperature;BMP_pressure;BME280_temperature;BME280_humidity;BME280_pressure;Samples;Min_cycle;Max_cycle;Signal;HPM_P1;HPM_P2
2022/09/24 00:00:35;;;;;;;11.32;8.10;;;;;;;10.67;100.00;155207.03;4951886;28;20536;-82
2022/09/24 00:03:00;;;;;;;8.95;7.93;;;;;;;10.68;100.00;155208.31;4945792;28;20058;-83
2022/09/24 00:05:26;;;;;;;10.68;8.07;;;;;;;10.74;100.00;155223.72;4981809;28;20068;-82
2022/09/24 00:07:52;;;;;;;12.02;8.60;;;;;;;10.79;100.00;155236.53;4976597;28;20059;-82
2022/09/24 00:10:18;;;;;;;10.55;8.52;;;;;;;10.74;100.00;155223.72;4970692;28;20038;-80
2022/09/24 00:12:43;;;;;;;9.50;8.38;;;;;;;10.70;100.00;155213.47;4945847;29;20027;-82
2022/09/24 00:15:09;;;;;;;9.60;8.02;;;;;;;10.72;100.00;155218.59;4959703;28;20042;-81
2022/09/24 00:17:34;;;;;;;9.27;8.23;;;;;;;10.74;100.00;155223.72;4955628;28;20030;-82
2022/09/24 00:20:00;;;;;;;11.73;8.07;;;;;;;10.75;100.00;155226.28;4975510;28;20047;-82
2022/09/24 00:22:26;;;;;;;10.48;7.88;;;;;;;10.75;100.00;155225.00;4970475;28;20087;-82
2022/09/24 00:27:36;;;;;;;10.25;8.25;;;;;;;10.76;100.00;155228.88;4946240;29;20043;-81
2022/09/24 00:30:01;;;;;;;9.35;7.20;;;;;;;10.73;100.00;155219.88;4927176;29;20050;-81
2022/09/24 00:32:27;;;;;;;11.90;9.20;;;;;;;10.64;100.00;155199.38;4924452;28;20043;-80
2022/09/24 00:34:53;;;;;;;11.38;8.32;;;;;;;10.66;100.00;155204.50;4944919;29;20062;-82
2022/09/24 00:37:19;;;;;;;10.65;8.98;;;;;;;10.62;100.00;155192.91;4959222;28;20043;-82
2022/09/24 00:39:45;;;;;;;10.30;8.80;;;;;;;10.63;100.00;155196.78;4946822;29;20070;-82
2022/09/24 00:42:13;;;;;;;11.43;8.52;;;;;;;10.53;100.00;155171.13;4950447;28;20043;-82
2022/09/24 00:44:39;;;;;;;11.90;8.93;;;;;;;10.56;100.00;155178.81;4950567;28;20026;-81
2022/09/24 00:47:12;;;;;;;10.15;8.07;;;;;;;10.48;100.00;155158.31;4949090;29;20050;-83
2022/09/24 00:49:38;;;;;;;11.55;9.10;;;;;;;10.41;100.00;155141.59;4949629;29;20035;-83
2022/09/24 00:52:04;;;;;;;9.45;8.45;;;;;;;10.44;100.00;155148.03;4949089;28;20036;-82
2022/09/24 00:54:29;;;;;;;11.18;9.07;;;;;;;10.44;100.00;155148.03;4959768;28;20031;-82
2022/09/24 00:56:57;;;;;;;10.27;9.02;;;;;;;10.44;100.00;155148.03;4989712;28;20497;-84
2022/09/24 00:59:24;;;;;;;11.30;8.52;;;;;;;10.46;100.00;155153.16;4965285;28;20122;-84
2022/09/24 01:01:52;;;;;;;11.27;8.23;;;;;;;10.43;100.00;155145.47;4958108;28;20576;-83
2022/09/24 01:04:20;;;;;;;10.93;9.25;;;;;;;10.33;100.00;155122.38;4948544;28;20042;-85
2022/09/24 01:06:48;;;;;;;10.73;8.63;;;;;;;10.40;100.00;155137.78;4951321;28;20059;-82
2022/09/24 01:09:14;;;;;;;11.63;8.82;;;;;;;10.36;100.00;155128.81;4940155;29;20043;-83
2022/09/24 01:11:58;;;;;;;10.35;8.35;;;;;;;10.37;100.00;155131.34;4946847;29;20047;-83
2022/09/24 01:14:42;;;;;;;10.63;8.60;;;;;;;10.35;100.00;155124.94;4965782;28;20032;-84
2022/09/24 01:17:29;;;;;;;11.82;9.05;;;;;;;10.36;100.00;155127.50;4947498;28;20047;-82
2022/09/24 01:20:35;;;;;;;12.77;9.10;;;;;;;10.32;100.00;155118.50;4949541;28;20074;-83
2022/09/24 01:23:07;;;;;;;10.35;8.75;;;;;;;10.31;100.00;155117.22;4947487;29;20039;-83
2022/09/24 01:26:11;;;;;;;9.75;8.75;;;;;;;10.28;100.00;155108.19;4961247;28;20059;-82
2022/09/24 01:29:04;;;;;;;12.98;8.32;;;;;;;10.30;100.00;155113.34;4920910;29;20067;-83
2022/09/24 01:31:48;;;;;;;10.52;8.18;;;;;;;10.36;100.00;155128.81;4928001;29;20039;-84
2022/09/24 01:34:19;;;;;;;11.35;8.57;;;;;;;10.41;100.00;155141.59;4939484;28;20027;-83
2022/09/24 01:36:47;;;;;;;10.32;9.25;;;;;;;10.49;100.00;155162.16;4929981;29;20049;-82
2022/09/24 01:39:13;;;;;;;10.68;9.13;;;;;;;10.50;100.00;155163.44;4945724;28;20035;-82
2022/09/24 01:41:41;;;;;;;10.55;8.90;;;;;;;10.52;100.00;155169.81;4945557;29;20434;-83
2022/09/24 01:44:08;;;;;;;12.02;8.63;;;;;;;10.49;100.00;155162.16;4946625;28;20023;-85
2022/09/24 01:46:39;;;;;;;11.88;8.43;;;;;;;10.45;100.00;155151.91;4963072;28;20124;-84
2022/09/24 01:49:06;;;;;;;10.73;8.43;;;;;;;10.46;100.00;155153.16;4931783;29;20035;-83
2022/09/24 01:51:43;;;;;;;10.52;7.88;;;;;;;10.42;100.00;155144.19;4934196;28;20090;-84
2022/09/24 01:54:18;;;;;;;12.95;8.55;;;;;;;10.42;100.00;155142.91;4963277;28;20035;-84
2022/09/24 01:56:57;;;;;;;9.52;8.13;;;;;;;10.40;100.00;155137.78;4943816;28;20518;-84
2022/09/24 01:59:49;;;;;;;9.52;8.48;;;;;;;10.36;100.00;155127.50;4931269;28;20043;-85
2022/09/24 02:02:21;;;;;;;11.38;8.50;;;;;;;10.33;100.00;155121.09;4924636;28;20066;-84
2022/09/24 02:05:01;;;;;;;9.77;8.77;;;;;;;10.34;100.00;155123.69;4950889;29;20030;-84
2022/09/24 02:07:38;;;;;;;9.70;8.23;;;;;;;10.23;100.00;155096.69;4930104;28;20074;-84
2022/09/24 02:10:12;;;;;;;12.60;8.63;;;;;;;10.23;100.00;155096.69;4936176;28;20405;-83
2022/09/24 02:12:43;;;;;;;11.13;9.60;;;;;;;10.28;100.00;155108.19;4955404;28;20066;-83
2022/09/24 02:15:13;;;;;;;12.95;8.88;;;;;;;10.25;100.00;155100.53;4959187;28;20042;-84
2022/09/24 02:17:42;;;;;;;9.77;8.45;;;;;;;10.28;100.00;155109.53;4939058;29;20532;-82
2022/09/24 02:20:15;;;;;;;10.10;8.07;;;;;;;10.27;100.00;155105.66;4927682;28;20051;-84
2022/09/24 02:22:42;;;;;;;10.27;8.27;;;;;;;10.29;100.00;155110.78;4946269;28;20078;-82
2022/09/24 02:25:11;;;;;;;10.70;8.70;;;;;;;10.30;100.00;155114.69;4934541;28;20460;-83
2022/09/24 02:27:37;;;;;;;9.73;8.68;;;;;;;10.27;100.00;155106.94;4949589;28;20034;-83
2022/09/24 02:30:04;;;;;;;9.30;8.30;;;;;;;10.28;100.00;155109.53;4928315;29;20043;-82
2022/09/24 02:32:33;;;;;;;11.52;8.30;;;;;;;10.27;100.00;155106.94;4951630;28;20100;-83
2022/09/24 02:35:03;;;;;;;9.85;8.50;;;;;;;10.28;100.00;155109.53;4932823;28;20063;-83
2022/09/24 02:37:34;;;;;;;13.48;9.00;;;;;;;10.28;100.00;155109.53;4959460;28;20066;-83
2022/09/24 02:40:01;;;;;;;12.63;8.95;;;;;;;10.29;100.00;155112.06;4952512;28;20046;-83
2022/09/24 02:42:30;;;;;;;11.75;9.15;;;;;;;10.29;100.00;155110.78;4938466;28;20043;-83
2022/09/24 02:44:57;;;;;;;10.70;8.73;;;;;;;10.29;100.00;155110.78;4931948;29;20031;-86
2022/09/24 02:47:24;;;;;;;13.10;8.82;;;;;;;10.31;100.00;155115.97;4949066;28;20031;-85
2022/09/24 02:49:50;;;;;;;9.15;8.18;;;;;;;10.30;100.00;155113.34;4934771;28;20050;-83
2022/09/24 02:52:15;;;;;;;13.00;8.30;;;;;;;10.28;100.00;155109.53;4931853;28;20067;-84
2022/09/24 02:54:41;;;;;;;11.65;8.70;;;;;;;10.28;100.00;155108.19;4942806;29;20034;-85
2022/09/24 02:57:07;;;;;;;15.15;8.77;;;;;;;10.27;100.00;155105.66;4927737;29;20039;-86
2022/09/24 02:59:33;;;;;;;9.73;8.00;;;;;;;10.28;100.00;155109.53;4942998;28;20031;-85
2022/09/24 03:01:58;;;;;;;9.52;8.52;;;;;;;10.25;100.00;155100.53;4948284;28;20451;-86
2022/09/24 03:04:25;;;;;;;10.18;8.38;;;;;;;10.26;100.00;155103.06;4971301;28;20042;-83
2022/09/24 03:06:50;;;;;;;12.40;8.32;;;;;;;10.10;100.00;155064.59;4948352;28;20478;-83
2022/09/24 03:09:16;;;;;;;11.00;8.80;;;;;;;10.25;100.00;155101.81;4932695;28;20038;-84
2022/09/24 03:11:42;;;;;;;10.20;9.13;;;;;;;10.18;100.00;155082.56;4954694;28;20568;-84
2022/09/24 03:14:07;;;;;;;10.85;9.40;;;;;;;10.21;100.00;155091.56;4965243;28;20027;-83
2022/09/24 03:16:33;;;;;;;12.25;8.70;;;;;;;10.26;100.00;155103.06;4970232;28;20035;-84
2022/09/24 03:18:58;;;;;;;9.93;8.93;;;;;;;10.24;100.00;155097.94;4926857;29;20039;-84
2022/09/24 03:21:24;;;;;;;10.88;8.82;;;;;;;10.13;100.00;155072.31;4963244;28;20027;-84
2022/09/24 03:23:50;;;;;;;11.90;9.10;;;;;;;10.18;100.00;155082.56;4933630;29;20039;-83
2022/09/24 03:26:16;;;;;;;14.50;9.40;;;;;;;10.22;100.00;155094.09;4926665;28;20045;-83
2022/09/24 03:28:42;;;;;;;12.55;9.27;;;;;;;10.22;100.00;155094.09;4954352;28;20062;-84
2022/09/24 03:31:08;;;;;;;11.57;8.20;;;;;;;10.13;100.00;155071.00;4936914;29;20039;-83
2022/09/24 03:33:38;;;;;;;16.27;9.55;;;;;;;10.15;100.00;155076.13;4948911;28;20037;-84
2022/09/24 03:36:08;;;;;;;9.75;8.75;;;;;;;10.17;100.00;155079.97;4942457;29;20035;-82
2022/09/24 03:38:35;;;;;;;14.38;8.82;;;;;;;10.17;100.00;155081.31;4950570;29;20481;-83
2022/09/24 03:41:02;;;;;;;10.15;8.60;;;;;;;10.16;100.00;155077.44;4932718;28;20047;-83
2022/09/24 03:43:27;;;;;;;15.15;8.63;;;;;;;10.11;100.00;155065.88;4934270;28;20035;-84
2022/09/24 03:45:54;;;;;;;10.48;8.00;;;;;;;10.12;100.00;155069.72;4939541;28;20045;-84
2022/09/24 03:48:21;;;;;;;14.15;8.52;;;;;;;10.10;100.00;155064.59;4951626;29;20032;-83
2022/09/24 03:50:47;;;;;;;22.17;9.30;;;;;;;10.05;100.00;155051.75;4957771;28;20039;-83
2022/09/24 03:53:14;;;;;;;19.38;8.48;;;;;;;10.08;100.00;155059.47;4947727;28;20039;-84
2022/09/24 03:55:45;;;;;;;17.15;9.77;;;;;;;10.11;100.00;155067.19;4949552;28;20110;-85
2022/09/24 03:58:12;;;;;;;17.38;9.13;;;;;;;10.12;100.00;155068.47;4940722;28;20105;-82
2022/09/24 04:00:38;;;;;;;11.90;8.80;;;;;;;10.08;100.00;155058.22;4950842;28;20516;-84
2022/09/24 04:03:05;;;;;;;13.80;8.57;;;;;;;10.06;100.00;155053.09;4934512;28;20073;-83
2022/09/24 04:05:30;;;;;;;15.85;9.52;;;;;;;10.13;100.00;155071.00;4945072;29;20070;-84
2022/09/24 04:07:58;;;;;;;15.40;9.07;;;;;;;10.13;100.00;155071.00;4964614;28;20046;-82
2022/09/24 04:10:24;;;;;;;11.45;8.82;;;;;;;10.07;100.00;155055.63;4940797;28;20414;-83
2022/09/24 04:12:51;;;;;;;12.20;9.20;;;;;;;10.08;100.00;155059.47;4963115;28;20130;-84
2022/09/24 04:15:17;;;;;;;15.80;9.38;;;;;;;10.10;100.00;155063.34;4949953;28;20039;-85
2022/09/24 04:17:50;;;;;;;12.82;10.38;;;;;;;10.14;100.00;155073.59;4948449;29;20405;-83
2022/09/24 04:20:20;;;;;;;14.88;10.90;;;;;;;10.13;100.00;155072.31;4940334;29;20493;-83
2022/09/24 04:22:45;;;;;;;14.68;10.73;;;;;;;10.15;100.00;155076.13;4945506;28;20034;-84
2022/09/24 04:25:11;;;;;;;13.80;11.32;;;;;;;10.17;100.00;155079.97;4929345;28;20572;-82
2022/09/24 04:27:36;;;;;;;13.55;12.10;;;;;;;10.18;100.00;155082.56;4961484;28;20031;-84
2022/09/24 04:30:02;;;;;;;19.38;12.02;;;;;;;10.26;100.00;155104.34;4931914;28;20043;-84
2022/09/24 04:32:27;;;;;;;14.88;12.57;;;;;;;10.24;100.00;155099.22;4941824;28;20071;-83
2022/09/24 04:34:53;;;;;;;20.23;13.48;;;;;;;10.36;100.00;155127.50;4954916;29;20035;-84
2022/09/24 04:37:18;;;;;;;16.65;13.45;;;;;;;10.39;100.00;155136.47;4947592;28;20042;-83
2022/09/24 04:39:44;;;;;;;19.45;15.70;;;;;;;10.44;100.00;155149.31;4934464;28;20031;-83
2022/09/24 04:42:18;;;;;;;20.98;16.48;;;;;;;10.48;100.00;155159.56;4963602;28;20047;-83
2022/09/24 04:44:47;;;;;;;22.90;16.90;;;;;;;10.52;100.00;155168.56;4951995;29;20446;-84
2022/09/24 04:47:13;;;;;;;24.42;16.50;;;;;;;10.55;100.00;155174.94;4942604;28;20039;-83
2022/09/24 04:49:42;;;;;;;21.92;18.15;;;;;;;10.51;100.00;155166.00;4943879;29;20453;-83
2022/09/24 04:52:07;;;;;;;24.55;18.80;;;;;;;10.44;100.00;155149.31;4950164;28;20042;-83
2022/09/24 04:54:33;;;;;;;23.95;19.42;;;;;;;10.54;100.00;155173.69;4949007;29;20469;-83
2022/09/24 04:56:59;;;;;;;24.60;20.42;;;;;;;10.57;100.00;155181.41;4958932;28;20043;-83
2022/09/24 04:59:24;;;;;;;24.88;20.73;;;;;;;10.57;100.00;155180.06;4953094;28;20046;-83
2022/09/24 05:01:50;;;;;;;26.58;21.88;;;;;;;10.57;100.00;155181.41;4949495;29;20047;-83
2022/09/24 05:04:15;;;;;;;24.67;21.08;;;;;;;10.57;100.00;155181.41;4962373;28;20045;-83
2022/09/24 05:06:41;;;;;;;23.02;19.98;;;;;;;10.54;100.00;155172.41;4933157;28;20047;-82
2022/09/24 05:09:07;;;;;;;27.00;22.10;;;;;;;10.48;100.00;155159.56;4959581;28;20038;-83
2022/09/24 05:11:32;;;;;;;24.65;21.40;;;;;;;10.52;100.00;155168.56;4937660;28;20031;-82
2022/09/24 05:13:58;;;;;;;23.80;21.10;;;;;;;10.47;100.00;155157.03;4944515;28;20128;-82
2022/09/24 05:16:24;;;;;;;31.00;25.17;;;;;;;10.48;100.00;155158.31;4959146;28;20813;-82
2022/09/24 05:18:49;;;;;;;29.52;22.77;;;;;;;10.49;100.00;155160.84;4948202;29;20035;-81
2022/09/24 05:21:14;;;;;;;27.75;22.77;;;;;;;10.49;100.00;155162.16;4946722;28;20394;-82
2022/09/24 05:23:40;;;;;;;30.08;24.00;;;;;;;10.50;100.00;155163.44;4946437;29;20045;-82
2022/09/24 05:28:51;;;;;;;32.42;25.23;;;;;;;10.50;100.00;155163.44;4973497;28;20031;-82
2022/09/24 05:31:17;;;;;;;29.85;24.40;;;;;;;10.56;100.00;155178.81;4938602;28;20042;-82
2022/09/24 05:33:43;;;;;;;31.75;25.13;;;;;;;10.48;100.00;155159.56;4959586;28;20047;-82
2022/09/24 05:36:09;;;;;;;32.50;25.15;;;;;;;10.60;100.00;155187.78;4955226;28;20051;-82
2022/09/24 05:38:34;;;;;;;33.28;26.30;;;;;;;10.60;100.00;155189.06;4937389;28;20062;-80
2022/09/24 05:41:00;;;;;;;31.60;25.67;;;;;;;10.62;100.00;155194.19;4959679;28;20085;-82
2022/09/24 05:43:26;;;;;;;33.40;26.88;;;;;;;10.61;100.00;155190.38;4951238;29;20039;-81
2022/09/24 05:45:53;;;;;;;34.47;26.75;;;;;;;10.61;100.00;155190.38;4958720;28;20403;-82
2022/09/24 05:48:20;;;;;;;32.97;25.15;;;;;;;10.63;100.00;155196.78;4954357;28;20213;-81
2022/09/24 05:50:46;;;;;;;33.72;24.27;;;;;;;10.64;100.00;155198.03;4953202;29;20039;-80
2022/09/24 05:53:11;;;;;;;29.55;24.65;;;;;;;10.64;100.00;155199.38;4959570;28;20062;-81
2022/09/24 05:55:37;;;;;;;30.70;25.75;;;;;;;10.64;100.00;155199.38;4955308;28;20031;-83
2022/09/24 05:58:09;;;;;;;33.47;25.73;;;;;;;10.57;100.00;155181.41;4953078;29;20039;-80
2022/09/24 06:00:35;;;;;;;30.48;25.02;;;;;;;10.55;100.00;155174.94;4931554;29;20046;-81
2022/09/24 06:03:04;;;;;;;32.25;24.80;;;;;;;10.70;100.00;155214.75;4932156;28;20527;-82
2022/09/24 06:05:30;;;;;;;31.90;25.20;;;;;;;10.71;100.00;155216.03;4947647;28;20030;-82
2022/09/24 06:07:55;;;;;;;31.48;25.73;;;;;;;10.70;100.00;155214.75;4935429;28;20062;-81
2022/09/24 06:10:21;;;;;;;35.85;28.38;;;;;;;10.67;100.00;155205.75;4948058;28;20042;-82
2022/09/24 06:12:47;;;;;;;32.97;26.55;;;;;;;10.73;100.00;155221.16;4949561;29;20095;-83
2022/09/24 06:15:13;;;;;;;32.33;27.60;;;;;;;10.71;100.00;155216.03;4959040;28;20042;-83
2022/09/24 06:17:38;;;;;;;30.33;25.50;;;;;;;10.76;100.00;155228.88;4945141;29;20039;-82
2022/09/24 06:20:05;;;;;;;32.80;25.27;;;;;;;10.74;100.00;155222.41;4961925;28;20050;-82
2022/09/24 06:22:30;;;;;;;30.50;24.38;;;;;;;10.68;100.00;155208.31;4960586;28;20032;-81
2022/09/24 06:24:56;;;;;;;32.63;25.35;;;;;;;10.74;100.00;155223.72;4965919;28;20473;-83
2022/09/24 06:27:21;;;;;;;30.38;26.13;;;;;;;10.76;100.00;155227.59;4961263;28;20077;-81
2022/09/24 06:29:47;;;;;;;29.48;24.90;;;;;;;10.79;100.00;155235.25;4929713;29;20039;-82
2022/09/24 06:32:12;;;;;;;31.05;25.08;;;;;;;10.79;100.00;155236.53;4952014;29;20807;-82
2022/09/24 06:34:38;;;;;;;31.52;25.75;;;;;;;10.81;100.00;155240.38;4945735;29;20042;-82
2022/09/24 06:37:03;;;;;;;33.50;26.60;;;;;;;10.81;100.00;155240.38;4932448;29;20100;-83
2022/09/24 06:39:29;;;;;;;30.08;24.80;;;;;;;10.76;100.00;155228.88;4957381;28;20045;-81
2022/09/24 06:41:55;;;;;;;31.17;24.67;;;;;;;10.80;100.00;155239.13;4937557;29;20126;-82
2022/09/24 06:44:21;;;;;;;37.47;26.20;;;;;;;10.76;100.00;155228.88;4934414;28;20379;-80
2022/09/24 06:46:47;;;;;;;30.83;25.63;;;;;;;10.73;100.00;155221.16;4931606;28;20038;-82
2022/09/24 06:49:12;;;;;;;31.25;25.58;;;;;;;10.77;100.00;155230.13;4946005;28;20134;-81
2022/09/24 06:51:38;;;;;;;32.70;24.60;;;;;;;10.77;100.00;155231.41;4976085;28;20058;-81
2022/09/24 06:54:03;;;;;;;34.83;26.40;;;;;;;10.74;100.00;155223.72;4942101;29;20063;-80
2022/09/24 06:56:29;;;;;;;32.03;25.27;;;;;;;10.76;100.00;155228.88;4928502;28;20529;-81
2022/09/24 06:58:55;;;;;;;30.27;24.85;;;;;;;10.78;100.00;155234.00;4925629;29;20036;-81
2022/09/24 07:01:21;;;;;;;25.95;23.15;;;;;;;10.68;100.00;155209.63;4972386;28;20034;-82
2022/09/24 07:03:46;;;;;;;29.88;23.20;;;;;;;10.71;100.00;155217.28;4943438;29;20023;-80
2022/09/24 07:06:12;;;;;;;30.38;22.52;;;;;;;10.73;100.00;155221.16;4936380;28;20049;-82
2022/09/24 07:08:37;;;;;;;28.02;23.83;;;;;;;10.80;100.00;155239.13;4966335;28;20072;-82
2022/09/24 07:11:03;;;;;;;28.38;23.70;;;;;;;10.76;100.00;155228.88;4931173;29;20103;-82
2022/09/24 07:13:29;;;;;;;28.92;24.30;;;;;;;10.77;100.00;155230.13;4963701;28;20043;-82
2022/09/24 07:15:55;;;;;;;28.80;24.13;;;;;;;10.77;100.00;155231.41;4968399;28;20049;-82
2022/09/24 07:18:20;;;;;;;27.98;23.38;;;;;;;10.79;100.00;155236.53;4962666;28;20040;-81
2022/09/24 07:20:54;;;;;;;30.77;24.80;;;;;;;10.75;100.00;155226.28;4937363;28;20031;-81
2022/09/24 07:23:20;;;;;;;31.55;25.08;;;;;;;10.73;100.00;155219.88;4965142;28;20047;-83
2022/09/24 07:25:46;;;;;;;33.67;26.92;;;;;;;10.81;100.00;155241.69;4955331;28;20030;-83
2022/09/24 07:28:14;;;;;;;33.08;26.23;;;;;;;10.76;100.00;155228.88;4951189;28;20454;-82
2022/09/24 07:30:40;;;;;;;29.38;25.60;;;;;;;10.79;100.00;155236.53;4946785;29;20046;-82
2022/09/24 07:33:06;;;;;;;30.92;25.27;;;;;;;10.82;100.00;155242.97;4937478;29;20126;-82
2022/09/24 07:35:33;;;;;;;31.88;26.33;;;;;;;10.84;100.00;155249.38;4970733;28;20030;-81
2022/09/24 07:38:00;;;;;;;31.33;25.05;;;;;;;10.82;100.00;155242.97;4943693;29;20046;-82
2022/09/24 07:40:28;;;;;;;35.47;26.58;;;;;;;10.79;100.00;155236.53;4946782;29;20078;-83
2022/09/24 07:42:54;;;;;;;32.78;25.75;;;;;;;10.82;100.00;155242.97;4947765;29;20051;-82
2022/09/24 07:45:21;;;;;;;34.55;26.83;;;;;;;10.77;100.00;155230.13;4962086;28;20035;-81
2022/09/24 07:47:47;;;;;;;29.88;25.13;;;;;;;10.74;100.00;155222.41;4963631;28;20121;-81
2022/09/24 07:50:13;;;;;;;31.08;25.05;;;;;;;10.75;100.00;155225.00;4942019;29;20066;-81
2022/09/24 07:52:39;;;;;;;35.50;27.38;;;;;;;10.67;100.00;155207.03;4946209;29;20702;-81
2022/09/24 07:55:05;;;;;;;35.72;27.98;;;;;;;10.80;100.00;155239.13;4923675;29;20035;-81
2022/09/24 07:57:31;;;;;;;35.20;28.48;;;;;;;10.82;100.00;155244.25;4945520;28;20047;-82
2022/09/24 07:59:56;;;;;;;32.53;26.63;;;;;;;10.76;100.00;155228.88;4938159;29;20498;-81
2022/09/24 08:02:23;;;;;;;38.58;29.35;;;;;;;10.83;100.00;155245.50;4934667;28;20043;-81
2022/09/24 08:04:49;;;;;;;35.88;27.42;;;;;;;10.79;100.00;155235.25;4921878;29;20070;-81
2022/09/24 08:07:14;;;;;;;35.78;26.70;;;;;;;10.89;100.00;155262.22;4931402;28;20054;-82
2022/09/24 08:09:40;;;;;;;30.00;23.80;;;;;;;10.83;100.00;155245.50;4947874;28;20098;-82
2022/09/24 08:12:06;;;;;;;34.30;27.25;;;;;;;10.82;100.00;155244.25;4953729;28;20034;-82
2022/09/24 08:14:32;;;;;;;39.53;27.83;;;;;;;10.89;100.00;155262.22;4937201;28;20023;-82
2022/09/24 08:16:57;;;;;;;37.75;26.67;;;;;;;10.88;100.00;155259.63;4957660;28;20041;-81
2022/09/24 08:19:23;;;;;;;38.17;26.80;;;;;;;10.93;100.00;155269.94;4941641;28;20039;-82
2022/09/24 08:21:49;;;;;;;35.60;25.70;;;;;;;10.84;100.00;155249.38;4945038;28;20122;-82
2022/09/24 08:24:16;;;;;;;38.85;25.98;;;;;;;10.80;100.00;155237.84;4947349;28;20045;-82
2022/09/24 08:26:42;;;;;;;33.78;26.23;;;;;;;10.94;100.00;155273.75;4938059;29;20047;-82
2022/09/24 08:29:07;;;;;;;40.50;28.08;;;;;;;10.90;100.00;155263.50;4956056;29;20038;-82
2022/09/24 08:31:33;;;;;;;38.20;27.73;;;;;;;10.91;100.00;155266.06;4980405;28;20074;-82
2022/09/24 08:34:00;;;;;;;42.40;28.98;;;;;;;10.84;100.00;155248.09;4933615;29;20130;-83
2022/09/24 08:36:26;;;;;;;43.15;29.48;;;;;;;10.87;100.00;155257.09;4948902;28;20103;-82
2022/09/24 08:38:54;;;;;;;38.25;27.98;;;;;;;10.89;100.00;155260.94;4949218;29;20042;-82
2022/09/24 08:41:25;;;;;;;37.78;27.63;;;;;;;10.93;100.00;155271.22;4947395;28;20089;-83
2022/09/24 08:44:01;;;;;;;40.85;28.08;;;;;;;10.96;100.00;155278.88;4958615;28;20152;-84
2022/09/24 08:49:46;;;;;;;42.42;28.50;;;;;;;10.97;100.00;155281.47;4956124;28;20039;-82
2022/09/24 08:52:31;;;;;;;40.05;29.02;;;;;;;10.98;100.00;155284.06;4955820;28;20042;-83
2022/09/24 08:55:03;;;;;;;40.92;30.10;;;;;;;10.98;100.00;155284.06;4952082;29;20039;-83
2022/09/24 08:57:46;;;;;;;48.70;35.72;;;;;;;11.03;100.00;155296.84;4950022;29;20035;-82
2022/09/24 09:00:15;;;;;;;45.85;30.45;;;;;;;10.99;100.00;155285.31;4945710;28;20035;-81
2022/09/24 09:02:52;;;;;;;42.33;30.80;;;;;;;11.08;100.00;155308.44;4950511;28;20038;-82
2022/09/24 09:05:45;;;;;;;46.15;32.47;;;;;;;11.06;100.00;155303.28;4938347;28;20038;-82
2022/09/24 09:08:44;;;;;;;38.67;28.50;;;;;;;11.10;100.00;155313.56;4953483;28;20053;-82
2022/09/24 09:11:13;;;;;;;38.67;27.65;;;;;;;11.17;100.00;155331.53;4945135;28;20038;-81
2022/09/24 09:13:48;;;;;;;39.13;28.42;;;;;;;11.32;100.00;155368.75;4941537;28;20062;-81
2022/09/24 09:16:23;;;;;;;37.58;27.75;;;;;;;11.35;100.00;155375.16;4946660;28;20035;-82
2022/09/24 09:18:52;;;;;;;40.30;27.95;;;;;;;11.46;100.00;155404.66;4935926;28;20448;-81
2022/09/24 09:21:30;;;;;;;39.45;28.58;;;;;;;11.47;100.00;155405.94;4948751;28;20062;-85
2022/09/24 09:23:57;;;;;;;36.30;27.88;;;;;;;11.55;100.00;155426.50;4969120;28;20030;-80
2022/09/24 09:26:25;;;;;;;39.42;29.73;;;;;;;11.56;100.00;155429.06;4950744;28;20045;-80
2022/09/24 09:28:54;;;;;;;43.92;30.73;;;;;;;11.62;100.00;155444.50;4960302;28;20123;-80
2022/09/24 09:31:27;;;;;;;36.55;28.50;;;;;;;11.63;100.00;155445.75;4951780;29;20046;-80
2022/09/24 09:33:55;;;;;;;;;;;;;;;11.69;100.00;155462.44;4965385;28;20038;-79
2022/09/24 09:36:42;;;;;;;39.80;28.73;;;;;;;11.73;100.00;155471.41;4955041;28;19922;-80
2022/09/24 09:39:49;;;;;;;40.67;28.67;;;;;;;11.58;100.00;155432.91;4965144;28;20054;-81
2022/09/24 09:42:34;;;;;;;44.70;29.85;;;;;;;11.67;100.00;155456.03;4929301;28;20043;-82
2022/09/24 09:45:31;;;;;;;42.13;29.77;;;;;;;11.63;100.00;155445.75;4949666;28;20061;-81
2022/09/24 09:47:58;;;;;;;40.47;30.75;;;;;;;11.73;100.00;155470.16;4941900;29;20070;-82
2022/09/24 09:50:32;;;;;;;41.85;29.15;;;;;;;11.68;100.00;155458.63;4929541;29;20039;-80
2022/09/24 09:52:57;;;;;;;42.05;31.40;;;;;;;11.76;100.00;155477.88;4943705;28;20041;-82
2022/09/24 09:55:30;;;;;;;40.15;29.70;;;;;;;11.74;100.00;155472.72;4934596;28;20046;-80
2022/09/24 09:58:09;;;;;;;42.40;29.55;;;;;;;11.72;100.00;155468.88;4948994;28;20038;-81
2022/09/24 10:00:35;;;;;;;40.17;30.27;;;;;;;11.70;100.00;155463.75;4951489;28;20039;-80
2022/09/24 10:03:02;;;;;;;40.40;29.70;;;;;;;11.76;100.00;155477.88;4943838;29;20406;-82
2022/09/24 10:05:29;;;;;;;40.15;29.10;;;;;;;11.72;100.00;155468.88;4945876;28;20031;-81
2022/09/24 10:07:58;;;;;;;43.05;31.10;;;;;;;11.81;100.00;155492.00;4936786;29;20043;-80
2022/09/24 10:10:26;;;;;;;44.25;30.50;;;;;;;11.83;100.00;155495.84;4946096;28;20037;-82
2022/09/24 10:12:54;;;;;;;47.10;31.75;;;;;;;11.83;100.00;155497.13;4950934;28;20763;-80
2022/09/24 10:15:23;;;;;;;42.53;30.55;;;;;;;11.89;100.00;155511.25;4946922;28;20039;-80
2022/09/24 10:17:52;;;;;;;40.42;30.30;;;;;;;11.92;100.00;155518.97;4939100;28;20042;-81
2022/09/24 10:20:28;;;;;;;44.80;31.55;;;;;;;11.99;100.00;155535.69;4925954;29;20098;-80
2022/09/24 10:23:01;;;;;;;42.03;30.27;;;;;;;11.96;100.00;155527.97;4966279;28;20062;-80
2022/09/24 10:25:29;;;;;;;48.20;32.40;;;;;;;11.98;100.00;155534.41;4934918;28;20072;-82
2022/09/24 10:30:32;;;;;;;44.90;32.30;;;;;;;12.02;100.00;155544.69;4934820;29;20070;-81
2022/09/24 10:31:00;;;;;;;41.22;30.38;;;;;;;12.01;100.00;155540.81;4943554;28;20035;-80
2022/09/24 10:33:34;;;;;;;46.67;33.78;;;;;;;11.88;100.00;155509.97;4949947;28;20039;-80
2022/09/24 10:36:06;;;;;;;44.10;32.28;;;;;;;11.86;100.00;155503.53;4950177;28;20047;-79
2022/09/24 10:38:32;;;;;;;47.05;33.60;;;;;;;11.81;100.00;155490.66;4941821;28;20031;-81
2022/09/24 10:41:00;;;;;;;42.92;31.60;;;;;;;11.75;100.00;155475.28;4943233;29;20063;-81
2022/09/24 10:43:26;;;;;;;43.88;31.27;;;;;;;11.74;100.00;155472.72;4955153;28;20047;-79
2022/09/24 10:46:04;;;;;;;43.92;30.85;;;;;;;11.75;100.00;155476.53;4943353;29;20497;-82
2022/09/24 10:48:49;;;;;;;46.05;33.15;;;;;;;11.77;100.00;155480.41;4932481;28;20047;-80
2022/09/24 10:51:19;;;;;;;49.55;32.95;;;;;;;11.77;100.00;155481.72;4948984;28;20034;-81
2022/09/24 10:54:25;;;;;;;47.90;33.75;;;;;;;11.76;100.00;155479.13;4940242;29;20047;-82
2022/09/24 10:56:55;;;;;;;43.70;32.25;;;;;;;11.81;100.00;155492.00;4954711;28;20122;-81
2022/09/24 11:00:06;;;;;;;44.75;32.83;;;;;;;11.87;100.00;155507.38;4927085;28;20040;-81
2022/09/24 11:03:04;;;;;;;44.72;33.40;;;;;;;11.90;100.00;155513.84;4936132;28;20107;-82
2022/09/24 11:05:49;;;;;;;48.90;32.83;;;;;;;11.87;100.00;155506.13;4908896;28;20062;-81
2022/09/24 11:08:19;;;;;;;42.33;31.85;;;;;;;11.91;100.00;155515.16;4943817;28;20054;-83
2022/09/24 11:10:53;;;;;;;47.92;33.63;;;;;;;11.87;100.00;155507.38;4953874;28;20484;-81
2022/09/24 11:13:33;;;;;;;46.70;32.85;;;;;;;11.96;100.00;155527.97;4946150;28;20051;-81
2022/09/24 11:16:27;;;;;;;40.70;29.58;;;;;;;11.91;100.00;155515.16;4948822;29;20043;-82
2022/09/24 11:19:01;;;;;;;42.45;31.33;;;;;;;12.02;100.00;155544.69;4941285;29;20035;-81
2022/09/24 11:21:52;;;;;;;41.83;30.02;;;;;;;12.02;100.00;155543.41;4943042;28;20035;-82
2022/09/24 11:24:29;;;;;;;40.35;29.20;;;;;;;12.03;100.00;155545.94;4941627;28;20035;-81